sensor_id;sensor_type;location;lat;lon;timestamp;temperature;humidity
70321;DHT22;61127;55.826;37.046;2023-08-01T00:00:05;16.39;73.71
70321;DHT22;61127;55.826;37.046;2023-08-01T00:02:39;16.35;73.61
70321;DHT22;61127;55.826;37.046;2023-08-01T00:05:08;16.34;73.67
70321;DHT22;61127;55.826;37.046;2023-08-01T00:07:35;16.32;73.80
70321;DHT22;61127;55.826;37.046;2023-08-01T00:10:01;16.31;73.92
70321;DHT22;61127;55.826;37.046;2023-08-01T00:12:27;16.31;73.82
70321;DHT22;61127;55.826;37.046;2023-08-01T00:14:54;16.28;73.91
70321;DHT22;61127;55.826;37.046;2023-08-01T00:17:20;16.26;73.99
70321;DHT22;61127;55.826;37.046;2023-08-01T00:19:46;16.25;73.91
70321;DHT22;61127;55.826;37.046;2023-08-01T00:22:12;16.22;73.99
70321;DHT22;61127;55.826;37.046;2023-08-01T00:24:38;16.21;73.90
70321;DHT22;61127;55.826;37.046;2023-08-01T00:27:04;16.19;73.96
70321;DHT22;61127;55.826;37.046;2023-08-01T00:29:30;16.17;73.86
70321;DHT22;61127;55.826;37.046;2023-08-01T00:31:56;16.16;73.90
70321;DHT22;61127;55.826;37.046;2023-08-01T00:34:22;16.13;73.84
70321;DHT22;61127;55.826;37.046;2023-08-01T00:36:48;16.08;73.86
70321;DHT22;61127;55.826;37.046;2023-08-01T00:39:14;16.06;73.93
70321;DHT22;61127;55.826;37.046;2023-08-01T00:41:41;16.04;73.99
70321;DHT22;61127;55.826;37.046;2023-08-01T00:44:06;16.04;73.99
70321;DHT22;61127;55.826;37.046;2023-08-01T00:46:32;16.02;74.11
70321;DHT22;61127;55.826;37.046;2023-08-01T00:48:59;16.01;74.31
70321;DHT22;61127;55.826;37.046;2023-08-01T00:51:26;15.99;74.45
70321;DHT22;61127;55.826;37.046;2023-08-01T00:53:53;15.98;74.36
70321;DHT22;61127;55.826;37.046;2023-08-01T00:56:19;15.96;74.31
70321;DHT22;61127;55.826;37.046;2023-08-01T00:58:45;15.95;74.30
70321;DHT22;61127;55.826;37.046;2023-08-01T01:01:11;15.93;74.44
70321;DHT22;61127;55.826;37.046;2023-08-01T01:03:38;15.93;74.42
70321;DHT22;61127;55.826;37.046;2023-08-01T01:06:20;15.89;74.86
70321;DHT22;61127;55.826;37.046;2023-08-01T01:08:50;15.87;74.64
70321;DHT22;61127;55.826;37.046;2023-08-01T01:11:16;15.87;74.72
70321;DHT22;61127;55.826;37.046;2023-08-01T01:13:41;15.85;74.76
70321;DHT22;61127;55.826;37.046;2023-08-01T01:16:07;15.85;74.93
70321;DHT22;61127;55.826;37.046;2023-08-01T01:18:33;15.83;75.02
70321;DHT22;61127;55.826;37.046;2023-08-01T01:20:59;15.83;75.03
70321;DHT22;61127;55.826;37.046;2023-08-01T01:23:26;15.81;75.00
70321;DHT22;61127;55.826;37.046;2023-08-01T01:25:54;15.80;74.97
70321;DHT22;61127;55.826;37.046;2023-08-01T01:28:22;15.80;75.13
70321;DHT22;61127;55.826;37.046;2023-08-01T01:30:49;15.78;74.97
70321;DHT22;61127;55.826;37.046;2023-08-01T01:33:15;15.76;74.89
70321;DHT22;61127;55.826;37.046;2023-08-01T01:35:41;15.76;74.90
70321;DHT22;61127;55.826;37.046;2023-08-01T01:38:08;15.73;75.02
70321;DHT22;61127;55.826;37.046;2023-08-01T01:40:34;15.72;75.05
70321;DHT22;61127;55.826;37.046;2023-08-01T01:43:00;15.70;75.05
70321;DHT22;61127;55.826;37.046;2023-08-01T01:45:27;15.69;75.01
70321;DHT22;61127;55.826;37.046;2023-08-01T01:47:53;15.69;74.96
70321;DHT22;61127;55.826;37.046;2023-08-01T01:50:19;15.68;74.96
70321;DHT22;61127;55.826;37.046;2023-08-01T01:52:45;15.69;75.09
70321;DHT22;61127;55.826;37.046;2023-08-01T01:55:11;15.72;75.10
70321;DHT22;61127;55.826;37.046;2023-08-01T01:57:38;15.71;75.12
70321;DHT22;61127;55.826;37.046;2023-08-01T02:00:06;15.73;75.16
70321;DHT22;61127;55.826;37.046;2023-08-01T02:02:38;15.74;75.09
70321;DHT22;61127;55.826;37.046;2023-08-01T02:05:04;15.76;75.12
70321;DHT22;61127;55.826;37.046;2023-08-01T02:07:31;15.77;75.02
70321;DHT22;61127;55.826;37.046;2023-08-01T02:09:57;15.82;75.05
70321;DHT22;61127;55.826;37.046;2023-08-01T02:12:23;15.85;74.92
70321;DHT22;61127;55.826;37.046;2023-08-01T02:14:49;15.86;74.94
70321;DHT22;61127;55.826;37.046;2023-08-01T02:17:15;15.89;74.99
70321;DHT22;61127;55.826;37.046;2023-08-01T02:19:42;15.93;74.93
70321;DHT22;61127;55.826;37.046;2023-08-01T02:22:07;15.95;74.96
70321;DHT22;61127;55.826;37.046;2023-08-01T02:24:33;15.98;75.00
70321;DHT22;61127;55.826;37.046;2023-08-01T02:26:59;16.02;75.05
70321;DHT22;61127;55.826;37.046;2023-08-01T02:29:25;16.06;75.01
70321;DHT22;61127;55.826;37.046;2023-08-01T02:31:51;16.12;75.09
70321;DHT22;61127;55.826;37.046;2023-08-01T02:34:17;16.18;75.05
70321;DHT22;61127;55.826;37.046;2023-08-01T02:36:43;16.22;75.02
70321;DHT22;61127;55.826;37.046;2023-08-01T02:39:09;16.28;74.86
70321;DHT22;61127;55.826;37.046;2023-08-01T02:41:35;16.34;74.82
70321;DHT22;61127;55.826;37.046;2023-08-01T02:44:01;16.39;74.79
70321;DHT22;61127;55.826;37.046;2023-08-01T02:46:27;16.44;74.73
70321;DHT22;61127;55.826;37.046;2023-08-01T02:48:55;16.49;74.79
70321;DHT22;61127;55.826;37.046;2023-08-01T02:51:21;16.56;74.67
70321;DHT22;61127;55.826;37.046;2023-08-01T02:53:47;16.59;74.71
70321;DHT22;61127;55.826;37.046;2023-08-01T02:56:13;16.61;74.88
70321;DHT22;61127;55.826;37.046;2023-08-01T02:58:39;16.64;74.70
70321;DHT22;61127;55.826;37.046;2023-08-01T03:01:08;16.71;74.83
70321;DHT22;61127;55.826;37.046;2023-08-01T03:03:36;16.80;74.77
70321;DHT22;61127;55.826;37.046;2023-08-01T03:06:03;16.88;74.69
70321;DHT22;61127;55.826;37.046;2023-08-01T03:08:28;16.98;74.57
70321;DHT22;61127;55.826;37.046;2023-08-01T03:10:55;17.03;74.51
70321;DHT22;61127;55.826;37.046;2023-08-01T03:13:22;17.08;74.52
70321;DHT22;61127;55.826;37.046;2023-08-01T03:15:47;17.10;74.56
70321;DHT22;61127;55.826;37.046;2023-08-01T03:18:13;17.15;74.40
70321;DHT22;61127;55.826;37.046;2023-08-01T03:20:39;17.23;74.38
70321;DHT22;61127;55.826;37.046;2023-08-01T03:23:06;17.31;74.36
70321;DHT22;61127;55.826;37.046;2023-08-01T03:25:32;17.40;74.31
70321;DHT22;61127;55.826;37.046;2023-08-01T03:27:58;17.49;74.19
70321;DHT22;61127;55.826;37.046;2023-08-01T03:30:24;17.59;74.09
70321;DHT22;61127;55.826;37.046;2023-08-01T03:32:51;17.67;74.05
70321;DHT22;61127;55.826;37.046;2023-08-01T03:35:17;17.75;73.96
70321;DHT22;61127;55.826;37.046;2023-08-01T03:37:43;17.84;73.86
70321;DHT22;61127;55.826;37.046;2023-08-01T03:40:09;17.93;73.70
70321;DHT22;61127;55.826;37.046;2023-08-01T03:42:36;17.99;73.74
70321;DHT22;61127;55.826;37.046;2023-08-01T03:45:03;18.07;73.90
70321;DHT22;61127;55.826;37.046;2023-08-01T03:47:31;18.13;73.69
70321;DHT22;61127;55.826;37.046;2023-08-01T03:49:57;18.21;73.32
70321;DHT22;61127;55.826;37.046;2023-08-01T03:52:24;18.29;73.40
70321;DHT22;61127;55.826;37.046;2023-08-01T03:54:52;18.38;73.26
70321;DHT22;61127;55.826;37.046;2023-08-01T03:57:19;18.46;73.10
70321;DHT22;61127;55.826;37.046;2023-08-01T03:59:46;18.55;73.12
70321;DHT22;61127;55.826;37.046;2023-08-01T04:02:12;18.65;72.87
70321;DHT22;61127;55.826;37.046;2023-08-01T04:04:38;18.74;72.80
70321;DHT22;61127;55.826;37.046;2023-08-01T04:07:04;18.86;72.68
70321;DHT22;61127;55.826;37.046;2023-08-01T04:09:30;18.96;72.54
70321;DHT22;61127;55.826;37.046;2023-08-01T04:11:56;19.10;72.57
70321;DHT22;61127;55.826;37.046;2023-08-01T04:14:24;19.22;72.36
70321;DHT22;61127;55.826;37.046;2023-08-01T04:16:51;19.36;72.49
70321;DHT22;61127;55.826;37.046;2023-08-01T04:19:16;19.47;72.13
70321;DHT22;61127;55.826;37.046;2023-08-01T04:21:42;19.62;71.78
70321;DHT22;61127;55.826;37.046;2023-08-01T04:24:09;19.76;71.35
70321;DHT22;61127;55.826;37.046;2023-08-01T04:26:35;19.94;71.18
70321;DHT22;61127;55.826;37.046;2023-08-01T04:29:02;20.12;70.94
70321;DHT22;61127;55.826;37.046;2023-08-01T04:31:28;20.31;70.87
70321;DHT22;61127;55.826;37.046;2023-08-01T04:33:54;20.47;70.03
70321;DHT22;61127;55.826;37.046;2023-08-01T04:36:20;20.64;69.68
70321;DHT22;61127;55.826;37.046;2023-08-01T04:38:46;20.81;69.78
70321;DHT22;61127;55.826;37.046;2023-08-01T04:41:12;20.99;69.36
70321;DHT22;61127;55.826;37.046;2023-08-01T04:43:38;21.19;68.98
70321;DHT22;61127;55.826;37.046;2023-08-01T04:46:04;21.38;68.13
70321;DHT22;61127;55.826;37.046;2023-08-01T04:48:30;21.54;67.90
70321;DHT22;61127;55.826;37.046;2023-08-01T04:50:56;21.76;67.88
70321;DHT22;61127;55.826;37.046;2023-08-01T04:53:22;21.98;67.75
70321;DHT22;61127;55.826;37.046;2023-08-01T04:55:48;22.18;66.78
70321;DHT22;61127;55.826;37.046;2023-08-01T04:58:14;22.38;66.53
70321;DHT22;61127;55.826;37.046;2023-08-01T05:00:42;22.61;65.76
70321;DHT22;61127;55.826;37.046;2023-08-01T05:03:08;22.83;65.64
70321;DHT22;61127;55.826;37.046;2023-08-01T05:05:34;23.05;65.07
70321;DHT22;61127;55.826;37.046;2023-08-01T05:08:00;23.31;65.11
70321;DHT22;61127;55.826;37.046;2023-08-01T05:10:26;23.57;64.27
70321;DHT22;61127;55.826;37.046;2023-08-01T05:12:52;23.79;63.07
70321;DHT22;61127;55.826;37.046;2023-08-01T05:15:46;24.08;63.26
70321;DHT22;61127;55.826;37.046;2023-08-01T05:18:18;24.34;62.56
70321;DHT22;61127;55.826;37.046;2023-08-01T05:20:44;24.57;62.31
70321;DHT22;61127;55.826;37.046;2023-08-01T05:23:10;24.78;61.14
70321;DHT22;61127;55.826;37.046;2023-08-01T05:25:36;25.00;60.73
70321;DHT22;61127;55.826;37.046;2023-08-01T05:28:03;25.22;60.86
70321;DHT22;61127;55.826;37.046;2023-08-01T05:30:28;25.43;60.61
70321;DHT22;61127;55.826;37.046;2023-08-01T05:32:54;25.66;60.67
70321;DHT22;61127;55.826;37.046;2023-08-01T05:35:20;25.84;59.17
70321;DHT22;61127;55.826;37.046;2023-08-01T05:37:46;26.03;59.35
70321;DHT22;61127;55.826;37.046;2023-08-01T05:40:13;26.25;58.30
70321;DHT22;61127;55.826;37.046;2023-08-01T05:42:39;26.46;57.42
70321;DHT22;61127;55.826;37.046;2023-08-01T05:45:05;26.65;55.67
70321;DHT22;61127;55.826;37.046;2023-08-01T05:47:31;26.83;54.39
70321;DHT22;61127;55.826;37.046;2023-08-01T05:49:57;26.96;54.80
70321;DHT22;61127;55.826;37.046;2023-08-01T05:52:23;0.00;0.00
70321;DHT22;61127;55.826;37.046;2023-08-01T05:54:49;0.00;0.00
70321;DHT22;61127;55.826;37.046;2023-08-01T05:57:15;0.00;0.00
70321;DHT22;61127;55.826;37.046;2023-08-01T05:59:41;27.83;54.23
70321;DHT22;61127;55.826;37.046;2023-08-01T06:02:07;28.12;55.23
70321;DHT22;61127;55.826;37.046;2023-08-01T06:04:33;28.34;50.98
70321;DHT22;61127;55.826;37.046;2023-08-01T06:06:59;28.46;52.42
70321;DHT22;61127;55.826;37.046;2023-08-01T06:09:25;28.69;52.50
70321;DHT22;61127;55.826;37.046;2023-08-01T06:11:51;28.85;49.51
70321;DHT22;61127;55.826;37.046;2023-08-01T06:14:17;29.00;50.57
70321;DHT22;61127;55.826;37.046;2023-08-01T06:16:43;29.09;48.19
70321;DHT22;61127;55.826;37.046;2023-08-01T06:19:09;29.24;48.40
70321;DHT22;61127;55.826;37.046;2023-08-01T06:21:35;29.49;46.99
70321;DHT22;61127;55.826;37.046;2023-08-01T06:24:01;29.58;46.70
70321;DHT22;61127;55.826;37.046;2023-08-01T06:26:27;29.71;37.93
70321;DHT22;61127;55.826;37.046;2023-08-01T06:28:53;29.82;46.00
70321;DHT22;61127;55.826;37.046;2023-08-01T06:31:22;0.00;0.00
70321;DHT22;61127;55.826;37.046;2023-08-01T06:33:48;0.00;0.00
70321;DHT22;61127;55.826;37.046;2023-08-01T06:36:14;0.00;0.00
70321;DHT22;61127;55.826;37.046;2023-08-01T06:38:43;0.00;0.00
70321;DHT22;61127;55.826;37.046;2023-08-01T06:41:09;0.00;0.00
70321;DHT22;61127;55.826;37.046;2023-08-01T06:43:35;0.00;0.00
70321;DHT22;61127;55.826;37.046;2023-08-01T06:46:04;0.00;0.00
70321;DHT22;61127;55.826;37.046;2023-08-01T06:48:31;0.00;0.00
70321;DHT22;61127;55.826;37.046;2023-08-01T06:51:00;0.00;0.00
70321;DHT22;61127;55.826;37.046;2023-08-01T06:53:27;0.00;0.00
70321;DHT22;61127;55.826;37.046;2023-08-01T06:55:53;0.00;0.00
70321;DHT22;61127;55.826;37.046;2023-08-01T06:58:19;0.00;0.00
70321;DHT22;61127;55.826;37.046;2023-08-01T07:00:45;0.00;0.00
70321;DHT22;61127;55.826;37.046;2023-08-01T07:03:11;0.00;0.00
70321;DHT22;61127;55.826;37.046;2023-08-01T07:05:37;31.63;38.20
70321;DHT22;61127;55.826;37.046;2023-08-01T07:08:03;31.42;39.91
70321;DHT22;61127;55.826;37.046;2023-08-01T07:10:30;31.13;39.52
70321;DHT22;61127;55.826;37.046;2023-08-01T07:12:56;30.94;39.38
70321;DHT22;61127;55.826;37.046;2023-08-01T07:15:22;31.18;40.52
70321;DHT22;61127;55.826;37.046;2023-08-01T07:17:48;31.44;39.34
70321;DHT22;61127;55.826;37.046;2023-08-01T07:20:14;31.14;39.78
70321;DHT22;61127;55.826;37.046;2023-08-01T07:22:40;30.71;39.17
70321;DHT22;61127;55.826;37.046;2023-08-01T07:25:06;30.30;40.65
70321;DHT22;61127;55.826;37.046;2023-08-01T07:27:32;29.82;40.49
70321;DHT22;61127;55.826;37.046;2023-08-01T07:29:58;29.68;41.34
70321;DHT22;61127;55.826;37.046;2023-08-01T07:32:26;30.18;42.16
70321;DHT22;61127;55.826;37.046;2023-08-01T07:34:54;30.86;40.40
70321;DHT22;61127;55.826;37.046;2023-08-01T07:37:20;31.21;40.09
70321;DHT22;61127;55.826;37.046;2023-08-01T07:39:49;31.46;38.75
70321;DHT22;61127;55.826;37.046;2023-08-01T07:42:15;31.37;37.67
70321;DHT22;61127;55.826;37.046;2023-08-01T07:44:41;30.98;40.47
70321;DHT22;61127;55.826;37.046;2023-08-01T07:47:07;31.41;39.46
70321;DHT22;61127;55.826;37.046;2023-08-01T07:49:33;31.80;39.05
70321;DHT22;61127;55.826;37.046;2023-08-01T07:51:59;32.45;39.73
70321;DHT22;61127;55.826;37.046;2023-08-01T07:54:25;0.00;0.00
70321;DHT22;61127;55.826;37.046;2023-08-01T07:56:51;0.00;0.00
70321;DHT22;61127;55.826;37.046;2023-08-01T07:59:17;0.00;0.00
70321;DHT22;61127;55.826;37.046;2023-08-01T08:01:43;0.00;0.00
70321;DHT22;61127;55.826;37.046;2023-08-01T08:04:09;0.00;0.00
70321;DHT22;61127;55.826;37.046;2023-08-01T08:06:36;0.00;0.00
70321;DHT22;61127;55.826;37.046;2023-08-01T08:09:02;0.00;0.00
70321;DHT22;61127;55.826;37.046;2023-08-01T08:11:28;0.00;0.00
70321;DHT22;61127;55.826;37.046;2023-08-01T08:13:54;0.00;0.00
70321;DHT22;61127;55.826;37.046;2023-08-01T08:16:20;0.00;0.00
70321;DHT22;61127;55.826;37.046;2023-08-01T08:18:46;0.00;0.00
70321;DHT22;61127;55.826;37.046;2023-08-01T08:21:12;0.00;0.00
70321;DHT22;61127;55.826;37.046;2023-08-01T08:23:38;0.00;0.00
70321;DHT22;61127;55.826;37.046;2023-08-01T08:26:04;0.00;0.00
70321;DHT22;61127;55.826;37.046;2023-08-01T08:28:32;0.00;0.00
70321;DHT22;61127;55.826;37.046;2023-08-01T08:30:59;0.00;0.00
70321;DHT22;61127;55.826;37.046;2023-08-01T08:33:25;0.00;0.00
70321;DHT22;61127;55.826;37.046;2023-08-01T08:35:51;0.00;0.00
70321;DHT22;61127;55.826;37.046;2023-08-01T08:38:18;0.00;0.00
70321;DHT22;61127;55.826;37.046;2023-08-01T08:43:26;0.00;0.00
70321;DHT22;61127;55.826;37.046;2023-08-01T08:45:56;0.00;0.00
70321;DHT22;61127;55.826;37.046;2023-08-01T08:48:24;0.00;0.00
70321;DHT22;61127;55.826;37.046;2023-08-01T08:50:51;0.00;0.00
70321;DHT22;61127;55.826;37.046;2023-08-01T08:53:17;0.00;0.00
70321;DHT22;61127;55.826;37.046;2023-08-01T08:55:43;0.00;0.00
70321;DHT22;61127;55.826;37.046;2023-08-01T08:58:09;0.00;0.00
70321;DHT22;61127;55.826;37.046;2023-08-01T09:00:36;0.00;0.00
70321;DHT22;61127;55.826;37.046;2023-08-01T09:03:04;0.00;0.00
70321;DHT22;61127;55.826;37.046;2023-08-01T09:05:48;0.00;0.00
70321;DHT22;61127;55.826;37.046;2023-08-01T09:08:21;0.00;0.00
70321;DHT22;61127;55.826;37.046;2023-08-01T09:10:47;0.00;0.00
70321;DHT22;61127;55.826;37.046;2023-08-01T09:13:14;0.00;0.00
70321;DHT22;61127;55.826;37.046;2023-08-01T09:15:41;0.00;0.00
70321;DHT22;61127;55.826;37.046;2023-08-01T09:18:09;0.00;0.00
70321;DHT22;61127;55.826;37.046;2023-08-01T09:20:45;0.00;0.00
70321;DHT22;61127;55.826;37.046;2023-08-01T09:23:12;0.00;0.00
70321;DHT22;61127;55.826;37.046;2023-08-01T09:25:38;0.00;0.00
70321;DHT22;61127;55.826;37.046;2023-08-01T09:28:15;0.00;0.00
70321;DHT22;61127;55.826;37.046;2023-08-01T09:30:49;0.00;0.00
70321;DHT22;61127;55.826;37.046;2023-08-01T09:33:16;0.00;0.00
70321;DHT22;61127;55.826;37.046;2023-08-01T09:35:42;0.00;0.00
70321;DHT22;61127;55.826;37.046;2023-08-01T09:38:11;0.00;0.00
70321;DHT22;61127;55.826;37.046;2023-08-01T09:40:38;0.00;0.00
70321;DHT22;61127;55.826;37.046;2023-08-01T09:43:05;0.00;0.00
70321;DHT22;61127;55.826;37.046;2023-08-01T09:45:30;0.00;0.00
70321;DHT22;61127;55.826;37.046;2023-08-01T09:47:56;0.00;0.00
70321;DHT22;61127;55.826;37.046;2023-08-01T09:50:23;0.00;0.00
70321;DHT22;61127;55.826;37.046;2023-08-01T09:52:50;0.00;0.00
70321;DHT22;61127;55.826;37.046;2023-08-01T09:55:31;0.00;0.00
70321;DHT22;61127;55.826;37.046;2023-08-01T09:57:59;0.00;0.00
70321;DHT22;61127;55.826;37.046;2023-08-01T10:00:29;0.00;0.00
70321;DHT22;61127;55.826;37.046;2023-08-01T10:02:57;0.00;0.00
70321;DHT22;61127;55.826;37.046;2023-08-01T10:05:29;0.00;0.00
70321;DHT22;61127;55.826;37.046;2023-08-01T10:07:58;0.00;0.00
70321;DHT22;61127;55.826;37.046;2023-08-01T10:10:25;0.00;0.00
70321;DHT22;61127;55.826;37.046;2023-08-01T10:12:51;0.00;0.00
70321;DHT22;61127;55.826;37.046;2023-08-01T10:15:19;0.00;0.00
70321;DHT22;61127;55.826;37.046;2023-08-01T10:17:45;0.00;0.00
70321;DHT22;61127;55.826;37.046;2023-08-01T10:20:12;0.00;0.00
70321;DHT22;61127;55.826;37.046;2023-08-01T10:22:39;0.00;0.00
70321;DHT22;61127;55.826;37.046;2023-08-01T10:25:08;0.00;0.00
70321;DHT22;61127;55.826;37.046;2023-08-01T10:27:35;0.00;0.00
70321;DHT22;61127;55.826;37.046;2023-08-01T10:30:04;0.00;0.00
70321;DHT22;61127;55.826;37.046;2023-08-01T10:32:36;0.00;0.00
70321;DHT22;61127;55.826;37.046;2023-08-01T10:35:02;0.00;0.00
70321;DHT22;61127;55.826;37.046;2023-08-01T10:37:43;0.00;0.00
70321;DHT22;61127;55.826;37.046;2023-08-01T10:40:10;0.00;0.00
70321;DHT22;61127;55.826;37.046;2023-08-01T10:42:43;0.00;0.00
70321;DHT22;61127;55.826;37.046;2023-08-01T10:45:21;0.00;0.00
70321;DHT22;61127;55.826;37.046;2023-08-01T10:47:49;0.00;0.00
70321;DHT22;61127;55.826;37.046;2023-08-01T10:50:15;0.00;0.00
70321;DHT22;61127;55.826;37.046;2023-08-01T10:52:42;0.00;0.00
70321;DHT22;61127;55.826;37.046;2023-08-01T10:55:09;0.00;0.00
70321;DHT22;61127;55.826;37.046;2023-08-01T10:57:38;0.00;0.00
70321;DHT22;61127;55.826;37.046;2023-08-01T11:00:05;37.88;20.85
70321;DHT22;61127;55.826;37.046;2023-08-01T11:02:36;36.77;21.85
70321;DHT22;61127;55.826;37.046;2023-08-01T11:05:04;35.84;22.82
70321;DHT22;61127;55.826;37.046;2023-08-01T11:07:32;35.28;24.14
70321;DHT22;61127;55.826;37.046;2023-08-01T11:10:09;34.86;24.64
70321;DHT22;61127;55.826;37.046;2023-08-01T11:12:37;35.26;25.74
70321;DHT22;61127;55.826;37.046;2023-08-01T11:15:04;35.59;24.70
70321;DHT22;61127;55.826;37.046;2023-08-01T11:17:32;35.07;25.67
70321;DHT22;61127;55.826;37.046;2023-08-01T11:22:30;34.46;26.09
70321;DHT22;61127;55.826;37.046;2023-08-01T11:24:57;34.40;26.24
70321;DHT22;61127;55.826;37.046;2023-08-01T11:27:24;34.23;26.45
70321;DHT22;61127;55.826;37.046;2023-08-01T11:29:50;33.76;26.58
70321;DHT22;61127;55.826;37.046;2023-08-01T11:32:16;33.31;27.11
70321;DHT22;61127;55.826;37.046;2023-08-01T11:34:43;32.96;27.80
70321;DHT22;61127;55.826;37.046;2023-08-01T11:37:15;32.77;28.56
70321;DHT22;61127;55.826;37.046;2023-08-01T11:39:41;32.50;29.04
70321;DHT22;61127;55.826;37.046;2023-08-01T11:42:07;32.43;29.06
70321;DHT22;61127;55.826;37.046;2023-08-01T11:44:33;34.41;28.99
70321;DHT22;61127;55.826;37.046;2023-08-01T11:46:59;38.32;26.22
70321;DHT22;61127;55.826;37.046;2023-08-01T11:49:25;0.00;0.00
70321;DHT22;61127;55.826;37.046;2023-08-01T11:51:51;0.00;0.00
70321;DHT22;61127;55.826;37.046;2023-08-01T11:54:17;0.00;0.00
70321;DHT22;61127;55.826;37.046;2023-08-01T11:56:46;0.00;0.00
70321;DHT22;61127;55.826;37.046;2023-08-01T11:59:16;0.00;0.00
70321;DHT22;61127;55.826;37.046;2023-08-01T12:01:45;0.00;0.00
70321;DHT22;61127;55.826;37.046;2023-08-01T12:04:11;0.00;0.00
70321;DHT22;61127;55.826;37.046;2023-08-01T12:06:38;0.00;0.00
70321;DHT22;61127;55.826;37.046;2023-08-01T12:09:12;0.00;0.00
70321;DHT22;61127;55.826;37.046;2023-08-01T12:11:40;0.00;0.00
70321;DHT22;61127;55.826;37.046;2023-08-01T12:14:14;0.00;0.00
70321;DHT22;61127;55.826;37.046;2023-08-01T12:16:42;0.00;0.00
70321;DHT22;61127;55.826;37.046;2023-08-01T12:19:20;0.00;0.00
70321;DHT22;61127;55.826;37.046;2023-08-01T12:21:47;0.00;0.00
70321;DHT22;61127;55.826;37.046;2023-08-01T12:24:13;0.00;0.00
70321;DHT22;61127;55.826;37.046;2023-08-01T12:26:39;0.00;0.00
70321;DHT22;61127;55.826;37.046;2023-08-01T12:29:05;0.00;0.00
70321;DHT22;61127;55.826;37.046;2023-08-01T12:31:31;0.00;0.00
70321;DHT22;61127;55.826;37.046;2023-08-01T12:33:57;0.00;0.00
70321;DHT22;61127;55.826;37.046;2023-08-01T12:36:23;0.00;0.00
70321;DHT22;61127;55.826;37.046;2023-08-01T12:38:49;0.00;0.00
70321;DHT22;61127;55.826;37.046;2023-08-01T12:41:16;0.00;0.00
70321;DHT22;61127;55.826;37.046;2023-08-01T12:43:41;0.00;0.00
70321;DHT22;61127;55.826;37.046;2023-08-01T12:46:08;0.00;0.00
70321;DHT22;61127;55.826;37.046;2023-08-01T12:48:33;0.00;0.00
70321;DHT22;61127;55.826;37.046;2023-08-01T12:51:00;0.00;0.00
70321;DHT22;61127;55.826;37.046;2023-08-01T12:53:25;0.00;19.67
70321;DHT22;61127;55.826;37.046;2023-08-01T12:55:57;40.26;20.30
70321;DHT22;61127;55.826;37.046;2023-08-01T12:58:23;0.00;18.93
70321;DHT22;61127;55.826;37.046;2023-08-01T13:00:49;42.34;17.34
70321;DHT22;61127;55.826;37.046;2023-08-01T13:03:14;40.83;18.89
70321;DHT22;61127;55.826;37.046;2023-08-01T13:05:42;39.21;18.44
70321;DHT22;61127;55.826;37.046;2023-08-01T13:08:08;38.01;19.99
70321;DHT22;61127;55.826;37.046;2023-08-01T13:10:37;37.01;21.75
70321;DHT22;61127;55.826;37.046;2023-08-01T13:13:03;36.18;21.70
70321;DHT22;61127;55.826;37.046;2023-08-01T13:15:29;35.44;22.11
70321;DHT22;61127;55.826;37.046;2023-08-01T13:17:55;34.90;23.12
70321;DHT22;61127;55.826;37.046;2023-08-01T13:20:22;34.42;23.72
70321;DHT22;61127;55.826;37.046;2023-08-01T13:22:51;33.91;25.09
70321;DHT22;61127;55.826;37.046;2023-08-01T13:25:18;33.91;25.76
70321;DHT22;61127;55.826;37.046;2023-08-01T13:27:45;34.10;26.04
70321;DHT22;61127;55.826;37.046;2023-08-01T13:30:11;33.86;25.68
70321;DHT22;61127;55.826;37.046;2023-08-01T13:32:40;33.59;26.52
70321;DHT22;61127;55.826;37.046;2023-08-01T13:35:07;33.55;27.57
70321;DHT22;61127;55.826;37.046;2023-08-01T13:37:32;33.42;26.91
70321;DHT22;61127;55.826;37.046;2023-08-01T13:39:58;33.14;27.84
70321;DHT22;61127;55.826;37.046;2023-08-01T13:42:26;33.06;27.50
70321;DHT22;61127;55.826;37.046;2023-08-01T13:44:54;32.59;28.01
70321;DHT22;61127;55.826;37.046;2023-08-01T13:47:20;32.26;29.94
70321;DHT22;61127;55.826;37.046;2023-08-01T13:49:46;32.01;30.71
70321;DHT22;61127;55.826;37.046;2023-08-01T13:52:12;31.82;31.13
70321;DHT22;61127;55.826;37.046;2023-08-01T13:54:38;31.68;31.27
70321;DHT22;61127;55.826;37.046;2023-08-01T13:57:04;31.63;31.73
70321;DHT22;61127;55.826;37.046;2023-08-01T13:59:30;31.74;31.56
70321;DHT22;61127;55.826;37.046;2023-08-01T14:01:56;0.00;31.47
70321;DHT22;61127;55.826;37.046;2023-08-01T14:04:22;32.68;31.51
70321;DHT22;61127;55.826;37.046;2023-08-01T14:06:48;33.07;31.80
70321;DHT22;61127;55.826;37.046;2023-08-01T14:09:15;33.31;31.14
70321;DHT22;61127;55.826;37.046;2023-08-01T14:11:41;33.45;30.20
70321;DHT22;61127;55.826;37.046;2023-08-01T14:14:07;33.51;30.75
70321;DHT22;61127;55.826;37.046;2023-08-01T14:16:33;33.49;30.45
70321;DHT22;61127;55.826;37.046;2023-08-01T14:18:59;33.34;30.78
70321;DHT22;61127;55.826;37.046;2023-08-01T14:21:25;33.04;29.70
70321;DHT22;61127;55.826;37.046;2023-08-01T14:23:51;32.64;31.35
70321;DHT22;61127;55.826;37.046;2023-08-01T14:26:17;32.27;31.19
70321;DHT22;61127;55.826;37.046;2023-08-01T14:28:43;31.99;31.25
70321;DHT22;61127;55.826;37.046;2023-08-01T14:31:09;31.72;31.45
70321;DHT22;61127;55.826;37.046;2023-08-01T14:33:35;31.53;31.26
70321;DHT22;61127;55.826;37.046;2023-08-01T14:36:01;31.39;31.22
70321;DHT22;61127;55.826;37.046;2023-08-01T14:38:27;31.21;31.74
70321;DHT22;61127;55.826;37.046;2023-08-01T14:40:53;30.98;32.34
70321;DHT22;61127;55.826;37.046;2023-08-01T14:43:20;0.00;0.00
70321;DHT22;61127;55.826;37.046;2023-08-01T14:45:46;0.00;0.00
70321;DHT22;61127;55.826;37.046;2023-08-01T14:48:12;0.00;0.00
70321;DHT22;61127;55.826;37.046;2023-08-01T14:50:38;0.00;0.00
70321;DHT22;61127;55.826;37.046;2023-08-01T14:53:04;0.00;0.00
70321;DHT22;61127;55.826;37.046;2023-08-01T14:55:32;0.00;0.00
70321;DHT22;61127;55.826;37.046;2023-08-01T14:57:59;0.00;0.00
70321;DHT22;61127;55.826;37.046;2023-08-01T15:00:25;0.00;0.00
70321;DHT22;61127;55.826;37.046;2023-08-01T15:02:51;0.00;0.00
70321;DHT22;61127;55.826;37.046;2023-08-01T15:05:17;0.00;0.00
70321;DHT22;61127;55.826;37.046;2023-08-01T15:07:44;0.00;0.00
70321;DHT22;61127;55.826;37.046;2023-08-01T15:10:10;0.00;0.00
70321;DHT22;61127;55.826;37.046;2023-08-01T15:12:38;0.00;0.00
70321;DHT22;61127;55.826;37.046;2023-08-01T15:15:05;0.00;0.00
70321;DHT22;61127;55.826;37.046;2023-08-01T15:17:32;0.00;0.00
70321;DHT22;61127;55.826;37.046;2023-08-01T15:19:58;0.00;0.00
70321;DHT22;61127;55.826;37.046;2023-08-01T15:22:24;0.00;0.00
70321;DHT22;61127;55.826;37.046;2023-08-01T15:24:50;0.00;0.00
70321;DHT22;61127;55.826;37.046;2023-08-01T15:27:17;0.00;0.00
70321;DHT22;61127;55.826;37.046;2023-08-01T15:29:45;0.00;0.00